Time;durP1;ratioP1;P1;durP2;ratioP2;P2;SDS_P1;SDS_P2;PMS_P1;PMS_P2;Temp;Humidity;BMP_temperature;BMP_pressure;BME280_temperature;BME280_humidity;BME280_pressure;Samples;Min_cycle;Max_cycle;Signal;HPM_P1;HPM_P2
2023/09/09 00:00:10;;;;;;;10.13;9.07;;;;;;;17.77;66.59;101225.50;7397377;19;20474;-70
2023/09/09 00:02:38;;;;;;;11.35;9.35;;;;;;;17.73;66.62;101225.66;7400407;19;20011;-69
2023/09/09 00:05:10;;;;;;;10.55;8.68;;;;;;;17.69;67.14;101223.19;7398498;19;20018;-69
2023/09/09 00:07:38;;;;;;;12.45;8.90;;;;;;;17.65;66.98;101227.78;7400266;19;20033;-68
2023/09/09 00:10:08;;;;;;;9.85;8.70;;;;;;;17.62;67.12;101227.06;7399362;19;20014;-69
2023/09/09 00:12:37;;;;;;;10.55;9.30;;;;;;;17.59;67.45;101220.09;7399315;19;20010;-69
2023/09/09 00:15:08;;;;;;;11.23;9.52;;;;;;;17.55;67.50;101218.50;7398048;19;20015;-68
2023/09/09 00:17:36;;;;;;;10.13;9.05;;;;;;;17.52;67.77;101223.97;7399118;19;20372;-69
2023/09/09 00:20:09;;;;;;;11.57;10.07;;;;;;;17.48;68.00;101217.03;7399313;19;20011;-68
2023/09/09 00:22:40;;;;;;;11.90;9.30;;;;;;;17.41;68.09;101225.28;7399509;19;20015;-68
2023/09/09 00:25:09;;;;;;;10.45;9.13;;;;;;;17.35;68.17;101220.25;7398259;19;20015;-69
2023/09/09 00:27:38;;;;;;;10.52;9.40;;;;;;;17.31;68.51;101217.78;7399026;19;20018;-69
2023/09/09 00:30:08;;;;;;;14.88;10.18;;;;;;;17.26;68.55;101221.50;7399027;19;20017;-69
2023/09/09 00:32:37;;;;;;;13.82;9.93;;;;;;;17.22;68.45;101226.97;7396303;19;20482;-69
2023/09/09 00:35:06;;;;;;;12.15;10.43;;;;;;;17.18;68.79;101228.88;7397805;19;20014;-69
2023/09/09 00:37:34;;;;;;;13.60;10.60;;;;;;;17.14;68.75;101223.81;7398793;19;20018;-68
2023/09/09 00:40:06;;;;;;;14.63;10.38;;;;;;;17.10;69.12;101229.22;7398739;19;20407;-69
2023/09/09 00:42:35;;;;;;;11.27;9.65;;;;;;;17.06;68.92;101218.78;7399122;19;20398;-69
2023/09/09 00:45:04;;;;;;;13.35;10.73;;;;;;;17.03;68.98;101227.72;7397541;19;20014;-69
2023/09/09 00:47:33;;;;;;;12.63;10.75;;;;;;;17.01;69.40;101219.00;7395968;19;20014;-69
2023/09/09 00:50:03;;;;;;;14.63;10.50;;;;;;;16.97;69.27;101222.69;7395714;19;20019;-68
2023/09/09 00:52:32;;;;;;;12.27;10.30;;;;;;;16.94;69.73;101228.13;7398603;19;20066;-69
2023/09/09 00:55:01;;;;;;;15.48;10.65;;;;;;;16.90;69.84;101222.03;7396752;19;20031;-68
2023/09/09 00:57:32;;;;;;;16.45;11.50;;;;;;;16.87;69.93;101221.31;7397734;19;20362;-68
2023/09/09 01:00:03;;;;;;;13.35;11.52;;;;;;;16.82;70.14;101218.84;7397740;19;20354;-69
2023/09/09 01:02:32;;;;;;;12.15;10.43;;;;;;;16.80;70.34;101215.41;7398334;19;20339;-69
2023/09/09 01:05:02;;;;;;;10.55;9.45;;;;;;;16.77;70.40;101208.44;7396614;19;20021;-66
2023/09/09 01:07:43;;;;;;;11.65;9.80;;;;;;;16.75;70.31;101212.06;7395572;19;20514;-69
2023/09/09 01:10:12;;;;;;;13.82;10.90;;;;;;;16.73;70.60;101220.09;7396072;19;20079;-69
2023/09/09 01:12:44;;;;;;;11.50;10.07;;;;;;;16.72;70.89;101214.81;7398349;19;20018;-68
2023/09/09 01:15:13;;;;;;;11.10;9.93;;;;;;;16.69;70.85;101209.66;7395890;19;20020;-67
2023/09/09 01:17:42;;;;;;;11.32;10.13;;;;;;;16.65;71.17;101210.72;7397281;19;20015;-67
2023/09/09 01:20:13;;;;;;;12.85;10.93;;;;;;;16.63;71.24;101216.09;7396954;19;20065;-67
2023/09/09 01:22:48;;;;;;;12.85;10.95;;;;;;;16.61;71.43;101209.97;7397700;19;20022;-67
2023/09/09 01:25:17;;;;;;;14.35;10.93;;;;;;;16.58;71.62;101210.06;7395808;19;20484;-68
2023/09/09 01:27:46;;;;;;;12.13;10.55;;;;;;;16.55;71.71;101202.25;7394968;19;20014;-67
2023/09/09 01:30:14;;;;;;;13.57;11.38;;;;;;;16.51;71.93;101206.81;7397093;19;20035;-67
2023/09/09 01:32:43;;;;;;;13.55;10.60;;;;;;;16.48;71.92;101204.31;7396513;19;20381;-68
2023/09/09 01:35:11;;;;;;;13.85;11.55;;;;;;;16.44;72.07;101200.03;7395966;19;20025;-65
2023/09/09 01:37:40;;;;;;;11.63;10.43;;;;;;;16.38;72.35;101203.78;7396717;19;20051;-68
2023/09/09 01:40:12;;;;;;;14.25;10.65;;;;;;;16.35;72.08;101198.63;7396855;19;20019;-67
2023/09/09 01:42:41;;;;;;;11.57;10.35;;;;;;;16.31;72.28;101199.66;7396860;19;20030;-67
2023/09/09 01:45:12;;;;;;;12.52;10.70;;;;;;;16.28;72.58;101203.28;7395364;19;20492;-67
2023/09/09 01:47:40;;;;;;;11.88;10.60;;;;;;;16.24;72.92;101193.72;7395426;19;20018;-68
2023/09/09 01:50:10;;;;;;;12.73;10.95;;;;;;;16.21;72.84;101196.47;7395533;19;20014;-67
2023/09/09 01:52:38;;;;;;;13.15;10.90;;;;;;;16.19;72.85;101198.34;7395144;19;20023;-67
2023/09/09 01:55:07;;;;;;;13.35;10.55;;;;;;;16.16;73.33;101195.78;7395060;19;20477;-67
2023/09/09 01:57:39;;;;;;;14.05;10.48;;;;;;;16.14;73.30;101192.38;7394542;19;20014;-68
2023/09/09 02:00:09;;;;;;;12.57;10.32;;;;;;;16.12;73.37;101191.53;7395817;19;20474;-67
2023/09/09 02:02:38;;;;;;;12.07;10.35;;;;;;;16.10;73.27;101194.25;7396025;19;20027;-67
2023/09/09 02:05:09;;;;;;;12.85;10.63;;;;;;;16.07;73.49;101199.66;7395209;19;20022;-67
2023/09/09 02:07:37;;;;;;;13.98;10.65;;;;;;;16.05;73.33;101193.56;7394236;19;20498;-67
2023/09/09 02:10:06;;;;;;;13.48;10.75;;;;;;;16.03;73.79;101203.34;7394240;19;20012;-67
2023/09/09 02:12:35;;;;;;;13.90;10.80;;;;;;;15.99;73.57;101193.78;7395829;19;20010;-68
2023/09/09 02:15:07;;;;;;;13.13;9.82;;;;;;;15.97;73.80;101192.97;7393616;19;20023;-67
2023/09/09 02:17:36;;;;;;;12.40;10.35;;;;;;;15.93;73.63;101192.22;7395876;19;20011;-68
2023/09/09 02:20:07;;;;;;;15.35;11.63;;;;;;;15.90;73.64;101194.16;7393531;19;20019;-67
2023/09/09 02:22:35;;;;;;;12.60;10.65;;;;;;;15.87;73.73;101189.84;7393065;19;20017;-67
2023/09/09 02:25:04;;;;;;;11.60;10.40;;;;;;;15.85;74.03;101183.72;7394576;19;20027;-67
2023/09/09 02:27:32;;;;;;;12.38;9.65;;;;;;;15.82;73.87;101194.41;7393650;19;20078;-68
2023/09/09 02:30:01;;;;;;;11.73;10.52;;;;;;;15.78;74.05;101196.28;7393628;19;20023;-67
2023/09/09 02:32:32;;;;;;;13.55;10.35;;;;;;;15.74;74.23;101185.88;7395221;19;20006;-68
2023/09/09 02:35:00;;;;;;;13.38;10.45;;;;;;;15.70;74.38;101187.75;7395168;19;20010;-67
2023/09/09 02:37:29;;;;;;;14.75;9.60;;;;;;;15.67;74.34;101190.53;7393531;19;20019;-67
2023/09/09 02:39:57;;;;;;;12.63;9.73;;;;;;;15.63;74.27;101183.59;7394408;19;20011;-67
2023/09/09 02:42:26;;;;;;;11.70;9.68;;;;;;;15.59;74.50;101184.63;7392817;19;20019;-67
2023/09/09 02:44:55;;;;;;;11.10;9.90;;;;;;;15.56;74.42;101188.25;7392694;19;20011;-67
2023/09/09 02:47:24;;;;;;;15.98;10.00;;;;;;;15.52;74.54;101191.94;7393381;19;20378;-66
2023/09/09 02:49:55;;;;;;;13.05;9.77;;;;;;;15.50;74.74;101182.31;7392914;19;20032;-66
2023/09/09 02:52:23;;;;;;;10.68;9.57;;;;;;;15.44;74.71;101186.03;7393467;19;20042;-68
2023/09/09 02:54:52;;;;;;;11.93;9.63;;;;;;;15.40;74.79;101182.63;7392649;19;20019;-68
2023/09/09 02:57:21;;;;;;;11.50;9.05;;;;;;;15.38;74.66;101183.59;7394162;19;20393;-67
2023/09/09 02:59:49;;;;;;;12.48;10.10;;;;;;;15.37;74.64;101185.38;7394615;19;20036;-67
2023/09/09 03:02:19;;;;;;;11.18;10.07;;;;;;;15.35;74.79;101186.38;7394016;19;20032;-67
2023/09/09 03:04:47;;;;;;;11.48;10.40;;;;;;;15.31;74.74;101183.81;7393251;19;20360;-67
2023/09/09 03:07:18;;;;;;;12.85;11.00;;;;;;;15.29;75.18;101190.06;7393273;19;20042;-67
2023/09/09 03:09:47;;;;;;;13.02;10.07;;;;;;;15.27;75.14;101187.47;7394629;19;20066;-68
2023/09/09 03:12:20;;;;;;;13.10;10.35;;;;;;;15.25;75.19;101184.06;7393758;19;20007;-68
2023/09/09 03:14:49;;;;;;;15.88;10.82;;;;;;;15.23;75.40;101185.03;7393744;19;20022;-67
2023/09/09 03:17:17;;;;;;;12.57;11.38;;;;;;;15.21;75.27;101186.84;7393649;19;20495;-66
2023/09/09 03:19:46;;;;;;;12.35;10.82;;;;;;;15.17;75.51;101186.06;7393404;19;20482;-67
2023/09/09 03:22:15;;;;;;;12.85;11.52;;;;;;;15.15;75.42;101183.50;7391442;19;20011;-67
2023/09/09 03:24:46;;;;;;;13.20;11.77;;;;;;;15.11;75.62;101183.63;7392770;19;20365;-67
2023/09/09 03:27:15;;;;;;;12.90;10.98;;;;;;;15.06;75.83;101180.28;7393168;19;20015;-67
2023/09/09 03:29:43;;;;;;;12.10;10.82;;;;;;;15.02;75.86;101182.16;7393508;19;20011;-67
2023/09/09 03:32:12;;;;;;;11.73;10.50;;;;;;;14.97;75.88;101184.09;7396269;19;20066;-67
2023/09/09 03:34:40;;;;;;;11.68;10.48;;;;;;;14.92;75.98;101181.59;7399698;19;20014;-67
2023/09/09 03:37:09;;;;;;;12.15;10.82;;;;;;;14.89;76.09;101180.88;7400745;19;20018;-68
2023/09/09 03:39:37;;;;;;;11.90;10.60;;;;;;;14.86;76.00;101180.94;7398073;19;20011;-67
2023/09/09 03:42:09;;;;;;;12.13;10.88;;;;;;;14.82;76.17;101188.09;7400138;19;20372;-67
2023/09/09 03:44:37;;;;;;;12.32;11.02;;;;;;;14.79;76.42;101183.78;7399794;19;20018;-67
2023/09/09 03:47:06;;;;;;;13.15;10.93;;;;;;;14.77;76.89;101174.19;7397897;19;20014;-67
2023/09/09 03:49:35;;;;;;;14.25;11.52;;;;;;;14.75;76.81;101176.88;7399894;19;20481;-67
2023/09/09 03:52:03;;;;;;;14.43;11.27;;;;;;;14.73;76.62;101176.06;7398057;19;20078;-67
2023/09/09 03:54:31;;;;;;;12.30;10.90;;;;;;;14.72;76.67;101184.03;7399676;19;20031;-67
2023/09/09 03:57:00;;;;;;;12.63;11.32;;;;;;;14.71;76.95;101185.81;7399862;19;20070;-68
2023/09/09 03:59:33;;;;;;;12.82;11.43;;;;;;;14.70;77.13;101185.84;7400197;19;20095;-67
2023/09/09 04:02:02;;;;;;;12.55;11.35;;;;;;;14.69;77.37;101185.00;7399775;19;20007;-67
2023/09/09 04:04:30;;;;;;;15.13;11.75;;;;;;;14.68;77.30;101188.53;7398541;19;20421;-67
2023/09/09 04:06:59;;;;;;;12.57;11.25;;;;;;;14.65;77.35;101186.88;7398935;19;20027;-67
2023/09/09 04:09:27;;;;;;;11.65;10.05;;;;;;;14.63;77.13;101182.50;7399375;19;20433;-67
2023/09/09 04:11:55;;;;;;;11.38;9.98;;;;;;;14.58;77.15;101180.00;7399219;19;20019;-67
2023/09/09 04:14:24;;;;;;;10.93;9.57;;;;;;;14.56;77.12;101191.53;7398920;19;20014;-67
2023/09/09 04:16:55;;;;;;;15.77;12.65;;;;;;;14.52;76.91;101182.00;7399170;19;20513;-67
2023/09/09 04:19:23;;;;;;;11.32;9.85;;;;;;;14.47;76.85;101188.28;7399027;19;20463;-66
2023/09/09 04:21:52;;;;;;;11.75;9.85;;;;;;;14.42;76.66;101186.69;7399118;19;20010;-67
2023/09/09 04:24:20;;;;;;;13.52;9.15;;;;;;;14.39;76.95;101192.06;7398520;19;20023;-67
2023/09/09 04:26:49;;;;;;;11.18;9.98;;;;;;;14.36;76.84;101198.31;7398801;19;20007;-67
2023/09/09 04:29:17;;;;;;;10.63;9.18;;;;;;;14.31;77.07;101190.50;7399105;19;20014;-67
2023/09/09 04:31:46;;;;;;;11.80;9.77;;;;;;;14.29;76.90;101194.13;7398607;19;20070;-66
2023/09/09 04:34:17;;;;;;;13.50;10.10;;;;;;;14.26;76.81;101191.56;7398057;19;20495;-66
2023/09/09 04:36:46;;;;;;;10.45;9.45;;;;;;;14.22;76.64;101185.53;7399152;19;20031;-67
2023/09/09 04:39:16;;;;;;;11.95;9.50;;;;;;;14.21;77.06;101193.50;7398892;19;20098;-67
2023/09/09 04:41:45;;;;;;;15.55;10.32;;;;;;;14.17;76.83;101188.28;7398470;19;20015;-67
2023/09/09 04:44:13;;;;;;;13.27;10.43;;;;;;;14.17;76.84;101190.09;7396274;19;20073;-66
2023/09/09 04:46:41;;;;;;;13.48;10.02;;;;;;;14.16;76.93;101197.09;7398277;19;20023;-66
2023/09/09 04:49:17;;;;;;;10.57;9.20;;;;;;;14.14;77.04;101187.50;7398495;19;20086;-67
2023/09/09 04:51:49;;;;;;;11.82;9.73;;;;;;;14.13;76.96;101194.56;7397037;19;20018;-67
2023/09/09 04:54:18;;;;;;;10.25;9.00;;;;;;;14.12;77.14;101184.94;7398248;19;20014;-67
2023/09/09 04:56:47;;;;;;;10.90;9.80;;;;;;;14.12;77.09;101190.19;7398060;19;20019;-66
2023/09/09 04:59:15;;;;;;;10.95;9.55;;;;;;;14.11;77.24;101192.91;7395717;19;20371;-66
2023/09/09 05:01:44;;;;;;;10.75;9.65;;;;;;;14.11;77.27;101198.16;7397568;19;20023;-67
2023/09/09 05:04:12;;;;;;;11.57;10.38;;;;;;;14.09;77.24;101200.88;7397534;19;20015;-67
2023/09/09 05:06:40;;;;;;;10.73;9.68;;;;;;;14.08;77.14;101193.84;7397724;19;20078;-67
2023/09/09 05:09:12;;;;;;;12.73;10.98;;;;;;;14.08;77.28;101198.25;7395181;19;20006;-67
2023/09/09 05:11:41;;;;;;;11.85;10.65;;;;;;;14.07;77.15;101200.03;7397237;19;20030;-67
2023/09/09 05:14:09;;;;;;;12.35;10.60;;;;;;;14.06;77.44;101205.34;7395548;19;20011;-67
2023/09/09 05:16:38;;;;;;;12.90;11.63;;;;;;;14.03;77.61;101203.69;7397324;19;20007;-68
2023/09/09 05:19:07;;;;;;;12.25;11.07;;;;;;;14.02;77.77;101210.72;7397548;19;20025;-66
2023/09/09 05:21:35;;;;;;;11.80;10.65;;;;;;;14.04;77.55;101209.81;7397454;19;20112;-66
2023/09/09 05:24:04;;;;;;;11.88;10.32;;;;;;;14.06;77.94;101208.00;7396931;19;20023;-66
2023/09/09 05:26:35;;;;;;;12.00;10.80;;;;;;;14.08;77.77;101206.16;7397007;19;20007;-67
2023/09/09 05:29:04;;;;;;;12.15;10.85;;;;;;;14.09;78.01;101195.59;7394982;19;20565;-67
2023/09/09 05:31:32;;;;;;;12.95;11.00;;;;;;;14.10;77.80;101205.22;7394781;19;20011;-67
2023/09/09 05:34:08;;;;;;;11.77;10.10;;;;;;;14.13;78.04;101207.78;7396771;19;20028;-68
2023/09/09 05:36:36;;;;;;;11.65;10.45;;;;;;;14.16;77.76;101207.66;7397040;19;20027;-68
2023/09/09 05:39:05;;;;;;;12.80;10.77;;;;;;;14.20;77.99;101208.44;7396802;19;20074;-67
2023/09/09 05:41:36;;;;;;;12.63;10.32;;;;;;;14.23;77.80;101213.66;7395930;19;20363;-66
2023/09/09 05:44:04;;;;;;;16.55;12.27;;;;;;;14.28;78.02;101221.41;7396534;19;20094;-66
2023/09/09 05:46:33;;;;;;;15.48;12.85;;;;;;;14.31;78.08;101218.69;7396388;19;20011;-66
2023/09/09 05:49:01;;;;;;;14.77;12.80;;;;;;;14.38;78.31;101214.09;7393826;19;20019;-67
2023/09/09 05:51:30;;;;;;;14.25;12.73;;;;;;;14.43;78.35;101215.69;7394785;19;20363;-67
2023/09/09 05:54:00;;;;;;;14.48;12.25;;;;;;;14.50;78.45;101211.09;7396336;19;20075;-69
2023/09/09 05:56:29;;;;;;;13.30;11.90;;;;;;;14.56;78.46;101208.25;7395989;19;20010;-66
2023/09/09 05:59:00;;;;;;;15.13;13.02;;;;;;;14.63;78.64;101215.09;7393804;19;20074;-66
2023/09/09 06:01:29;;;;;;;13.85;12.45;;;;;;;14.70;78.56;101214.91;7394784;19;20040;-67
2023/09/09 06:03:57;;;;;;;14.63;11.57;;;;;;;14.77;78.71;101213.81;7395400;19;20023;-65
2023/09/09 06:06:26;;;;;;;17.08;13.07;;;;;;;14.84;78.90;101220.63;7394865;19;20023;-66
2023/09/09 06:08:54;;;;;;;18.80;15.80;;;;;;;14.91;78.71;101221.28;7393966;19;20091;-67
2023/09/09 06:11:23;;;;;;;24.58;19.52;;;;;;;14.97;79.04;101221.97;7395446;19;20011;-68
2023/09/09 06:13:51;;;;;;;27.05;20.45;;;;;;;15.04;78.91;101219.97;7395559;19;20011;-67
2023/09/09 06:16:22;;;;;;;21.40;17.95;;;;;;;15.14;79.12;101228.47;7393436;19;20039;-68
2023/09/09 06:18:51;;;;;;;18.45;14.82;;;;;;;15.21;78.88;101229.97;7396046;19;20082;-67
2023/09/09 06:21:19;;;;;;;40.13;27.63;;;;;;;15.29;78.76;101221.78;7393291;19;20359;-68
2023/09/09 06:23:48;;;;;;;16.02;13.93;;;;;;;15.37;78.70;101230.34;7394908;19;20095;-67
2023/09/09 06:26:16;;;;;;;13.48;11.98;;;;;;;15.45;78.76;101225.63;7393441;19;20022;-67
2023/09/09 06:28:45;;;;;;;17.92;12.05;;;;;;;15.54;78.48;101226.25;7394275;19;20031;-67
2023/09/09 06:31:13;;;;;;;12.13;10.90;;;;;;;15.63;78.36;101229.44;7392583;19;20371;-67
2023/09/09 06:33:44;;;;;;;12.18;10.90;;;;;;;15.72;77.98;101225.59;7394593;19;20010;-66
2023/09/09 06:36:13;;;;;;;12.65;11.38;;;;;;;15.81;77.91;101227.06;7393184;19;20023;-70
2023/09/09 06:38:41;;;;;;;13.85;11.52;;;;;;;15.89;78.10;101230.31;7394472;19;20086;-68
2023/09/09 06:41:10;;;;;;;11.82;10.63;;;;;;;15.98;77.93;101236.19;7393069;19;20019;-68
2023/09/09 06:43:38;;;;;;;11.45;10.02;;;;;;;16.07;77.84;101227.91;7393017;19;20021;-68
2023/09/09 06:46:07;;;;;;;14.05;10.70;;;;;;;16.17;77.52;101231.09;7392598;19;20010;-67
2023/09/09 06:48:35;;;;;;;12.90;10.18;;;;;;;16.24;77.50;101229.94;7393497;19;20023;-67
2023/09/09 06:51:13;;;;;;;11.18;10.15;;;;;;;16.33;77.24;101226.94;7392804;19;20431;-68
2023/09/09 06:53:47;;;;;;;12.82;11.20;;;;;;;16.43;77.45;101227.47;7392464;19;20003;-67
2023/09/09 06:56:16;;;;;;;12.13;10.13;;;;;;;16.54;77.10;101237.63;7392066;19;20018;-68
2023/09/09 06:58:44;;;;;;;14.55;10.10;;;;;;;16.63;77.15;101239.03;7392484;19;20023;-67
2023/09/09 07:01:13;;;;;;;15.52;10.00;;;;;;;16.72;77.10;101234.25;7392130;19;20510;-68
2023/09/09 07:03:43;;;;;;;12.02;9.93;;;;;;;16.82;77.19;101233.88;7394241;19;20011;-67
2023/09/09 07:06:15;;;;;;;11.50;10.00;;;;;;;16.92;77.18;101238.78;7391781;19;20600;-67
2023/09/09 07:08:43;;;;;;;11.93;9.13;;;;;;;17.03;76.78;101246.28;7400417;19;20010;-68
2023/09/09 07:11:12;;;;;;;11.60;9.00;;;;;;;17.14;76.43;101240.56;7401476;19;20382;-69
2023/09/09 07:13:40;;;;;;;14.15;8.25;;;;;;;17.24;76.42;101244.53;7398491;19;20010;-66
2023/09/09 07:16:09;;;;;;;11.82;8.75;;;;;;;17.36;75.86;101240.53;7398766;19;20051;-66
2023/09/09 07:18:37;;;;;;;15.75;13.15;;;;;;;17.47;75.58;101241.84;7400828;19;20010;-65
2023/09/09 07:21:07;;;;;;;10.50;8.45;;;;;;;17.58;75.51;101242.25;7401131;19;20040;-65
2023/09/09 07:23:38;;;;;;;10.77;8.40;;;;;;;17.68;75.45;101238.28;7400770;19;20026;-64
2023/09/09 07:26:06;;;;;;;9.02;8.13;;;;;;;17.83;74.94;101241.16;7398816;19;20011;-66
2023/09/09 07:28:35;;;;;;;9.98;8.98;;;;;;;17.95;74.68;101238.00;7399671;19;20019;-65
2023/09/09 07:31:04;;;;;;;9.32;7.70;;;;;;;18.09;74.25;101234.72;7401031;19;20082;-64
2023/09/09 07:33:33;;;;;;;10.85;8.02;;;;;;;18.24;73.91;101225.19;7397814;19;20035;-65
2023/09/09 07:36:01;;;;;;;8.88;7.47;;;;;;;18.36;73.63;101226.41;7398504;19;20023;-66
2023/09/09 07:38:30;;;;;;;10.45;7.28;;;;;;;18.50;73.23;101228.41;7400800;19;20032;-65
2023/09/09 07:41:01;;;;;;;7.97;7.05;;;;;;;18.62;72.97;101227.84;7400612;19;20007;-64
2023/09/09 07:43:30;;;;;;;9.20;7.10;;;;;;;18.75;72.55;101228.09;7398126;19;20014;-66
2023/09/09 07:45:58;;;;;;;10.00;7.75;;;;;;;18.88;71.68;101231.91;7398380;19;20082;-65
2023/09/09 07:48:28;;;;;;;11.52;7.63;;;;;;;19.02;71.51;101231.25;7398830;19;20513;-65
2023/09/09 07:50:59;;;;;;;9.27;7.45;;;;;;;19.18;71.14;101233.13;7400082;19;20074;-64
2023/09/09 07:53:27;;;;;;;11.43;7.63;;;;;;;19.31;70.34;101239.56;7397585;19;20018;-64
2023/09/09 07:55:56;;;;;;;10.15;6.78;;;;;;;19.46;69.63;101237.06;7397488;19;20074;-64
2023/09/09 07:58:27;;;;;;;8.85;6.93;;;;;;;19.62;68.76;101239.78;7399428;19;20015;-64
2023/09/09 08:01:04;;;;;;;7.82;6.28;;;;;;;19.78;68.00;101240.72;7399855;19;20015;-65
2023/09/09 08:03:33;;;;;;;7.25;6.55;;;;;;;19.93;67.21;101238.19;7400350;19;20082;-65
2023/09/09 08:06:06;;;;;;;8.27;6.60;;;;;;;20.08;66.59;101239.19;7397371;19;20018;-65
2023/09/09 08:08:35;;;;;;;7.90;6.05;;;;;;;20.24;65.91;101231.22;7397900;19;20462;-63
2023/09/09 08:11:04;;;;;;;8.55;6.05;;;;;;;20.35;65.75;101229.69;7399078;19;20506;-65
2023/09/09 08:13:35;;;;;;;7.60;6.20;;;;;;;20.48;65.02;101229.00;7397202;19;20027;-66
2023/09/09 08:16:03;;;;;;;7.75;6.63;;;;;;;20.59;64.34;101229.25;7397278;19;20078;-66
2023/09/09 08:18:32;;;;;;;9.10;5.85;;;;;;;20.71;63.56;101227.72;7396553;19;20367;-66
2023/09/09 08:21:03;;;;;;;10.45;6.13;;;;;;;20.86;63.47;101234.00;7399298;19;20030;-65
2023/09/09 08:23:31;;;;;;;8.02;5.50;;;;;;;20.96;62.65;101229.84;7399669;19;20034;-66
2023/09/09 08:25:59;;;;;;;9.18;6.18;;;;;;;21.11;61.84;101232.59;7396340;19;20010;-66
2023/09/09 08:28:29;;;;;;;8.57;6.13;;;;;;;21.24;61.38;101230.06;7397730;19;20015;-65
2023/09/09 08:31:03;;;;;;;8.27;6.53;;;;;;;21.35;61.26;101232.09;7397065;19;20010;-65
2023/09/09 08:33:32;;;;;;;9.43;6.38;;;;;;;21.45;60.90;101230.59;7398139;19;20481;-66
2023/09/09 08:36:00;;;;;;;7.50;5.65;;;;;;;21.54;60.34;101230.03;7396333;19;20066;-65
2023/09/09 08:38:29;;;;;;;6.68;5.18;;;;;;;21.62;59.35;101226.94;7398463;19;20078;-66
2023/09/09 08:41:06;;;;;;;7.60;5.72;;;;;;;21.76;58.68;101236.75;7398142;19;20007;-66
2023/09/09 08:43:44;;;;;;;8.00;5.32;;;;;;;21.86;58.41;101235.25;7397560;19;20074;-65
2023/09/09 08:46:17;;;;;;;5.78;5.18;;;;;;;21.96;58.15;101241.75;7396360;19;20021;-65
2023/09/09 08:48:46;;;;;;;7.57;6.35;;;;;;;22.08;58.16;101244.63;7397298;19;20014;-65
2023/09/09 08:51:16;;;;;;;5.85;5.25;;;;;;;22.18;57.99;101240.41;7397162;19;20006;-65
2023/09/09 08:53:46;;;;;;;7.53;5.50;;;;;;;22.27;57.67;101230.97;7396096;19;20344;-66
2023/09/09 08:56:15;;;;;;;7.88;5.25;;;;;;;22.37;56.95;101236.59;7395957;19;20014;-65
2023/09/09 08:58:45;;;;;;;11.63;5.80;;;;;;;22.46;56.75;101233.34;7397728;19;20027;-66
2023/09/09 09:01:18;;;;;;;7.63;5.38;;;;;;;22.55;56.49;101234.56;7395131;19;20007;-66
2023/09/09 09:03:48;;;;;;;9.05;5.50;;;;;;;22.64;55.89;101235.78;7394583;19;20376;-65
2023/09/09 09:06:17;;;;;;;6.75;5.68;;;;;;;22.74;55.78;101236.91;7393930;19;20356;-65
2023/09/09 09:08:45;;;;;;;6.55;5.60;;;;;;;22.84;55.38;101237.16;7395696;19;20388;-65
2023/09/09 09:11:15;;;;;;;6.38;5.32;;;;;;;22.92;54.86;101235.69;7396776;19;20027;-66
2023/09/09 09:13:43;;;;;;;10.13;6.30;;;;;;;23.01;54.87;101225.31;7397057;19;20499;-65
2023/09/09 09:16:12;;;;;;;8.73;5.43;;;;;;;23.10;54.05;101227.38;7395056;19;20038;-64
2023/09/09 09:18:44;;;;;;;7.25;5.18;;;;;;;23.19;54.21;101228.59;7396913;19;20526;-65
2023/09/09 09:21:12;;;;;;;11.55;5.82;;;;;;;23.24;53.42;101224.69;7395181;19;20070;-65
2023/09/09 09:23:45;;;;;;;5.28;4.78;;;;;;;23.31;53.27;101222.44;7396702;19;20090;-66
2023/09/09 09:26:27;;;;;;;6.40;5.80;;;;;;;23.41;52.97;101220.00;7395323;19;20035;-66
2023/09/09 09:28:55;;;;;;;6.45;5.03;;;;;;;23.47;52.70;101222.25;7396286;19;20070;-65
2023/09/09 09:31:25;;;;;;;7.78;6.07;;;;;;;23.54;53.00;101220.88;7395714;19;20082;-65
2023/09/09 09:33:58;;;;;;;5.72;5.13;;;;;;;23.62;52.61;101222.13;7394646;19;20024;-66
2023/09/09 09:36:26;;;;;;;6.85;6.05;;;;;;;23.67;52.63;101217.31;7397437;19;20015;-65
2023/09/09 09:38:56;;;;;;;6.00;5.05;;;;;;;23.74;51.93;101207.91;7394647;19;20015;-66
2023/09/09 09:41:25;;;;;;;8.88;5.30;;;;;;;23.82;51.54;101212.72;7396475;19;20014;-66
2023/09/09 09:43:54;;;;;;;6.30;5.20;;;;;;;23.89;51.36;101214.84;7394519;19;20011;-65
2023/09/09 09:46:24;;;;;;;5.53;4.88;;;;;;;23.97;51.25;101206.28;7394213;19;20010;-66
2023/09/09 09:48:55;;;;;;;8.18;4.90;;;;;;;24.06;51.33;101207.47;7395257;19;20027;-65
2023/09/09 09:51:24;;;;;;;6.00;4.80;;;;;;;24.15;50.61;101209.50;7395608;19;20494;-65
2023/09/09 09:53:54;;;;;;;5.65;4.82;;;;;;;24.22;49.64;101196.50;7395396;19;20031;-65
2023/09/09 09:56:23;;;;;;;7.13;4.38;;;;;;;24.39;48.83;101200.63;7393991;19;20366;-65
2023/09/09 09:58:53;;;;;;;6.75;4.47;;;;;;;24.51;48.18;101205.09;7396229;19;20098;-65
2023/09/09 10:01:21;;;;;;;5.47;4.20;;;;;;;24.63;47.56;101192.63;7394375;19;20017;-67
2023/09/09 10:03:55;;;;;;;7.03;4.72;;;;;;;24.74;47.12;101197.19;7395799;19;20020;-66
2023/09/09 10:06:28;;;;;;;5.05;4.45;;;;;;;24.84;46.57;101192.00;7395434;19;20066;-66
2023/09/09 10:09:04;;;;;;;5.18;4.32;;;;;;;24.94;46.44;101186.78;7395074;19;20017;-65
2023/09/09 10:11:39;;;;;;;7.75;4.38;;;;;;;25.02;44.95;101193.28;7394558;19;20014;-64
2023/09/09 10:14:14;;;;;;;6.03;4.82;;;;;;;25.15;45.26;101192.34;7395139;19;20070;-65
2023/09/09 10:16:45;;;;;;;4.65;4.13;;;;;;;25.25;45.33;101193.38;7394646;19;20031;-66
2023/09/09 10:19:14;;;;;;;6.80;4.70;;;;;;;25.34;44.94;101191.81;7393506;19;20013;-66
2023/09/09 10:21:46;;;;;;;5.57;4.45;;;;;;;25.44;44.84;101187.47;7395030;19;20028;-66
2023/09/09 10:24:17;;;;;;;9.02;5.35;;;;;;;25.53;44.27;101186.72;7394384;19;20101;-66
2023/09/09 10:26:46;;;;;;;6.90;4.70;;;;;;;25.62;43.73;101187.84;7393308;19;20015;-66
2023/09/09 10:29:16;;;;;;;6.20;4.95;;;;;;;25.73;43.30;101191.50;7394002;19;20010;-66
2023/09/09 10:31:46;;;;;;;6.28;4.10;;;;;;;25.80;43.67;101188.19;7393839;19;20492;-66
2023/09/09 10:34:17;;;;;;;5.45;4.30;;;;;;;25.86;42.92;101184.19;7394292;19;20014;-65
2023/09/09 10:36:49;;;;;;;7.00;4.22;;;;;;;25.92;41.63;101177.44;7394341;19;20014;-66
2023/09/09 10:39:19;;;;;;;4.28;3.80;;;;;;;26.00;41.99;101173.16;7392416;19;20505;-64
2023/09/09 10:41:48;;;;;;;5.38;4.13;;;;;;;26.07;41.32;101170.91;7396525;19;20070;-65
2023/09/09 10:44:17;;;;;;;5.57;4.30;;;;;;;26.14;40.07;101161.34;7398643;19;20019;-65
2023/09/09 10:46:45;;;;;;;7.70;4.78;;;;;;;26.24;40.43;101168.66;7399597;19;20014;-66
2023/09/09 10:49:18;;;;;;;5.43;4.22;;;;;;;26.32;39.26;101167.06;7400837;19;20018;-66
2023/09/09 10:51:51;;;;;;;5.57;4.10;;;;;;;26.40;39.26;101158.34;7400736;19;20037;-66
2023/09/09 10:54:21;;;;;;;6.22;4.10;;;;;;;26.49;38.68;101170.19;7401001;19;20027;-66
2023/09/09 10:56:51;;;;;;;6.82;4.90;;;;;;;26.57;38.79;101159.63;7401503;19;20018;-67
2023/09/09 10:59:21;;;;;;;4.63;3.88;;;;;;;26.63;38.42;101159.13;7401796;19;20028;-64
2023/09/09 11:01:51;;;;;;;6.75;4.07;;;;;;;26.69;38.37;101157.78;7400951;19;20074;-65
2023/09/09 11:04:24;;;;;;;5.05;3.70;;;;;;;26.75;38.31;101159.94;7400303;19;20014;-65
2023/09/09 11:07:08;;;;;;;4.28;3.53;;;;;;;26.80;38.25;101160.44;7401220;19;20031;-67
2023/09/09 11:09:38;;;;;;;6.50;4.25;;;;;;;26.85;38.03;101160.03;7400050;19;20011;-65
2023/09/09 11:12:28;;;;;;;4.05;3.65;;;;;;;26.91;37.38;101151.44;7398165;19;20010;-65
2023/09/09 11:15:01;;;;;;;5.00;4.13;;;;;;;26.97;37.60;101150.09;7399812;19;20474;-65
2023/09/09 11:17:36;;;;;;;5.70;3.80;;;;;;;27.04;37.22;101145.88;7399337;19;20023;-64
2023/09/09 11:20:05;;;;;;;8.07;6.53;;;;;;;27.12;36.83;101159.53;7401004;19;20002;-65
2023/09/09 11:22:37;;;;;;;8.15;5.90;;;;;;;27.17;36.36;101148.38;7400722;19;20014;-66
2023/09/09 11:25:08;;;;;;;13.82;10.77;;;;;;;27.25;36.29;101148.56;7399976;19;20023;-66
2023/09/09 11:27:37;;;;;;;9.27;4.18;;;;;;;27.33;35.65;101144.34;7400919;19;20006;-66